Terminal Aerodrome Forecast
Issued by NWS Sioux Falls, SD

Home | Current Version | Previous Version | Text Only | Print | Product List | Glossary On
Versions: 1 2 3 4 5 6 7 8 9 10 11 12 13 14 15 16 17 18 19 20 21 22 23 24 25 26
434
FTUS43 KFSD 062320
TAFSUX
TAF
KSUX 062320Z 0700/0724 30018G26KT P6SM FEW250
     FM070800 30014G21KT P6SM SCT250
     FM071800 30018G27KT P6SM SCT250=

USA.gov is the U.S. government's official web portal to all federal, state and local government web resources and services.